Terminal Aerodrome Forecast
Issued by NWS

Home | Current Version | Previous Version | Graphics & Text | Print | Product List | Glossary On
Versions: 1 2 3 4 5 6 7 8 9 10 11 12 13 14 15 16 17 18 19 20 21 22 23 24 25 26 27 28 29 30 31 32 33 34 35
000
FTUS43 KGRB 281958 AAB
TAFRHI
TAF AMD
KRHI 281958Z 2820/2918 23008KT P6SM BKN070
      TEMPO 2820/2824 5SM -SHRA BR BKN040
     FM290000 VRB03KT P6SM BKN040 BKN080
     FM290600 VRB03KT 5SM BR SCT020 BKN040
     FM290800 VRB03KT 3SM BR SCT008 BKN030
      TEMPO 2908/2912 3/4SM BR BKN008
     FM291200 VRB03KT 5SM BR SCT010 BKN040=

USA.gov is the U.S. government's official web portal to all federal, state and local government web resources and services.